createdAt,value
2023-02-07T00:00:03.721Z,1000.02
2023-02-07T00:01:03.787Z,999.97
2023-02-07T00:02:03.865Z,1000.05
2023-02-07T00:03:03.902Z,1000.13
2023-02-07T00:04:03.022Z,1000.13
2023-02-07T00:05:03.897Z,1000.02
2023-02-07T00:06:03.915Z,999.99
2023-02-07T00:07:03.873Z,1000.16
2023-02-07T00:08:02.944Z,1000.02
2023-02-07T00:09:03.899Z,1000.08
2023-02-07T00:10:03.871Z,1000.13
2023-02-07T00:11:03.869Z,1000.22
2023-02-07T00:12:03.015Z,1000.19
2023-02-07T00:13:06.427Z,1000.16
2023-02-07T00:14:02.893Z,1000.24
2023-02-07T00:15:02.910Z,1000.22
2023-02-07T00:16:03.978Z,999.97
2023-02-07T00:17:02.961Z,1000.30
2023-02-07T00:18:02.954Z,1000.22
2023-02-07T00:19:03.131Z,1000.24
2023-02-07T00:20:03.064Z,1000.22
2023-02-07T00:21:03.072Z,1000.16
2023-02-07T00:22:03.200Z,1000.16
2023-02-07T00:26:03.215Z,1000.16
2023-02-07T00:27:03.141Z,1000.27
2023-02-07T00:28:03.459Z,1000.16
2023-02-07T00:29:03.183Z,1000.11
2023-02-07T00:30:03.034Z,1000.19
2023-02-07T00:31:03.175Z,1000.16
2023-02-07T00:32:02.970Z,1000.13
2023-02-07T00:33:03.004Z,1000.27
2023-02-07T00:34:02.946Z,1000.24
2023-02-07T00:35:02.929Z,1000.19
2023-02-07T00:36:03.006Z,1000.19
2023-02-07T00:37:03.170Z,1000.22
2023-02-07T00:38:03.184Z,1000.24
2023-02-07T00:39:03.293Z,1000.27
2023-02-07T00:40:03.238Z,1000.22
2023-02-07T00:41:03.286Z,1000.08
2023-02-07T00:42:03.330Z,1000.41
2023-02-07T00:43:03.459Z,1000.22
2023-02-07T00:44:03.409Z,1000.13
2023-02-07T00:45:03.402Z,1000.24
2023-02-07T00:46:03.393Z,1000.13
2023-02-07T00:47:03.439Z,999.97
2023-02-07T00:48:03.418Z,1000.19
2023-02-07T00:49:03.330Z,1000.16
2023-02-07T00:50:03.427Z,1000.13
2023-02-07T00:51:03.371Z,1000.19
2023-02-07T00:52:03.478Z,1000.16
2023-02-07T00:53:03.537Z,1000.13
2023-02-07T00:54:03.520Z,1000.13
2023-02-07T00:55:03.563Z,1000.27
2023-02-07T00:56:03.642Z,1000.24
2023-02-07T00:57:03.729Z,1000.30
2023-02-07T00:58:03.799Z,1000.11
2023-02-07T00:59:03.756Z,1000.05
2023-02-07T01:00:03.780Z,1000.11
2023-02-07T01:01:03.843Z,1000.22
2023-02-07T01:02:03.843Z,1000.35
2023-02-07T01:03:03.823Z,1000.24
2023-02-07T01:04:03.793Z,1000.16
2023-02-07T01:05:04.072Z,1000.24
2023-02-07T01:06:03.897Z,1000.22
2023-02-07T01:07:03.900Z,1000.05
2023-02-07T01:08:03.891Z,1000.19
2023-02-07T01:09:03.905Z,1000.19
2023-02-07T01:10:04.190Z,1000.30
2023-02-07T01:11:03.351Z,1000.19
2023-02-07T01:12:03.438Z,1000.08
2023-02-07T01:13:03.460Z,1000.08
2023-02-07T01:14:03.449Z,1000.19
2023-02-07T01:15:03.571Z,1000.11
2023-02-07T01:16:03.768Z,1000.11
2023-02-07T01:17:03.732Z,1000.02
2023-02-07T01:18:03.851Z,1000.22
2023-02-07T01:19:03.864Z,1000.08
2023-02-07T01:20:03.760Z,1000.10
2023-02-07T01:21:03.847Z,1000.13
2023-02-07T01:22:03.808Z,1000.24
2023-02-07T01:23:03.852Z,999.99
2023-02-07T01:24:02.974Z,1000.05
2023-02-07T01:25:02.899Z,999.99
2023-02-07T01:26:02.954Z,1000.08
2023-02-07T01:27:03.019Z,1000.05
2023-02-07T01:28:03.101Z,1000.16
2023-02-07T01:29:03.103Z,1000.10
2023-02-07T01:30:03.067Z,1000.10
2023-02-07T01:31:03.224Z,1000.10
2023-02-07T01:32:03.237Z,1000.02
2023-02-07T01:33:03.137Z,1000.02
2023-02-07T01:34:05.950Z,1000.10
2023-02-07T01:35:03.160Z,999.97
2023-02-07T01:36:03.183Z,1000.02
2023-02-07T01:37:03.250Z,999.80
2023-02-07T01:38:03.362Z,1000.10
2023-02-07T01:39:03.275Z,999.99
2023-02-07T01:40:03.379Z,999.77
2023-02-07T01:41:03.702Z,999.80
2023-02-07T01:42:03.456Z,999.88
2023-02-07T01:43:03.534Z,999.88
2023-02-07T01:44:03.681Z,999.99
2023-02-07T01:45:03.580Z,999.75
2023-02-07T01:46:03.720Z,999.86
2023-02-07T01:47:03.756Z,999.86
2023-02-07T01:48:03.784Z,999.72
2023-02-07T01:49:03.895Z,999.86
2023-02-07T01:50:03.929Z,999.80
2023-02-07T01:51:03.937Z,999.86
2023-02-07T01:52:03.922Z,999.97
2023-02-07T01:53:03.924Z,999.94
2023-02-07T01:54:03.854Z,999.86
2023-02-07T01:55:03.808Z,999.97
2023-02-07T01:56:03.800Z,999.94
2023-02-07T01:57:04.562Z,999.94
2023-02-07T01:58:03.843Z,999.97
2023-02-07T01:59:03.860Z,999.86
2023-02-07T02:00:03.799Z,999.94
2023-02-07T02:01:03.848Z,1000.05
2023-02-07T02:02:02.879Z,999.99
2023-02-07T02:03:03.867Z,999.83
2023-02-07T02:04:03.848Z,1000.02
2023-02-07T02:05:03.826Z,999.99
2023-02-07T02:06:03.832Z,999.86
2023-02-07T02:07:03.790Z,1000.02
2023-02-07T02:08:03.781Z,999.94
2023-02-07T02:09:03.664Z,999.91
2023-02-07T02:10:03.875Z,999.86
2023-02-07T02:11:03.798Z,999.88
2023-02-07T02:12:03.751Z,999.88
2023-02-07T02:13:03.860Z,999.83
2023-02-07T02:14:03.837Z,999.80
2023-02-07T02:15:03.737Z,999.77
2023-02-07T02:16:03.786Z,999.77
2023-02-07T02:17:03.709Z,999.80
2023-02-07T02:18:03.730Z,999.77
2023-02-07T02:19:03.842Z,999.72
2023-02-07T02:20:03.717Z,999.62
2023-02-07T02:21:03.848Z,999.67
2023-02-07T02:22:03.811Z,999.69
2023-02-07T02:23:03.813Z,999.72
2023-02-07T02:24:03.950Z,999.75
2023-02-07T02:25:04.089Z,999.56
2023-02-07T02:26:02.992Z,999.72
2023-02-07T02:27:03.060Z,999.64
2023-02-07T02:28:03.223Z,999.59
2023-02-07T02:29:03.164Z,999.75
2023-02-07T02:30:03.116Z,999.67
2023-02-07T02:31:03.168Z,999.72
2023-02-07T02:32:03.131Z,999.67
2023-02-07T02:33:03.104Z,999.75
2023-02-07T02:34:03.093Z,999.75
2023-02-07T02:35:03.073Z,999.75
2023-02-07T02:36:03.033Z,999.75
2023-02-07T02:37:03.035Z,999.75
2023-02-07T02:38:02.930Z,999.62
2023-02-07T02:39:03.050Z,999.88
2023-02-07T02:40:02.969Z,999.64
2023-02-07T02:41:02.974Z,999.62
2023-02-07T02:42:03.904Z,999.62
2023-02-07T02:43:02.964Z,999.75
2023-02-07T02:44:02.917Z,999.56
2023-02-07T02:45:02.989Z,999.69
2023-02-07T02:46:03.005Z,999.77
2023-02-07T02:47:03.047Z,999.67
2023-02-07T02:48:03.012Z,999.69
2023-02-07T02:49:03.070Z,999.69
2023-02-07T02:50:03.228Z,999.83
2023-02-07T02:51:03.212Z,999.75
2023-02-07T02:52:03.198Z,999.69
2023-02-07T02:53:03.254Z,999.75
2023-02-07T02:54:03.176Z,999.62
2023-02-07T02:55:03.149Z,999.56
2023-02-07T02:56:03.167Z,999.53
2023-02-07T02:57:03.168Z,999.51
2023-02-07T02:58:03.092Z,999.62
2023-02-07T02:59:03.138Z,999.53
2023-02-07T03:00:03.108Z,999.64
2023-02-07T03:01:03.020Z,999.62
2023-02-07T03:02:03.135Z,999.56
2023-02-07T03:03:03.071Z,999.62
2023-02-07T03:04:03.159Z,999.53
2023-02-07T03:05:03.272Z,999.42
2023-02-07T03:06:03.273Z,999.67
2023-02-07T03:07:03.325Z,999.48
2023-02-07T03:08:03.463Z,999.64
2023-02-07T03:09:03.418Z,999.51
2023-02-07T03:10:03.329Z,999.56
2023-02-07T03:11:03.430Z,999.48
2023-02-07T03:12:03.511Z,999.59
2023-02-07T03:13:03.420Z,999.31
2023-02-07T03:14:03.401Z,999.53
2023-02-07T03:15:03.553Z,999.53
2023-02-07T03:16:03.629Z,999.48
2023-02-07T03:17:03.677Z,999.53
2023-02-07T03:18:03.592Z,999.51
2023-02-07T03:19:03.587Z,999.48
2023-02-07T03:20:03.602Z,999.59
2023-02-07T03:21:03.632Z,999.42
2023-02-07T03:22:03.534Z,999.53
2023-02-07T03:23:03.559Z,999.56
2023-02-07T03:24:03.558Z,999.51
2023-02-07T03:25:03.658Z,999.59
2023-02-07T03:26:03.608Z,999.59
2023-02-07T03:27:03.752Z,999.51
2023-02-07T03:28:03.827Z,999.56
2023-02-07T03:29:03.654Z,999.67
2023-02-07T03:30:03.587Z,999.67
2023-02-07T03:31:03.728Z,999.64
2023-02-07T03:32:03.621Z,999.67
2023-02-07T03:33:03.614Z,999.80
2023-02-07T03:34:03.469Z,999.72
2023-02-07T03:35:03.548Z,999.77
2023-02-07T03:36:03.531Z,999.69
2023-02-07T03:37:03.557Z,999.72
2023-02-07T03:38:03.542Z,999.75
2023-02-07T03:39:03.454Z,999.67
2023-02-07T03:40:03.364Z,999.69
2023-02-07T03:41:03.441Z,999.69
2023-02-07T03:42:03.394Z,999.69
2023-02-07T03:43:03.322Z,999.67
2023-02-07T03:44:03.379Z,999.62
2023-02-07T03:45:03.313Z,999.62
2023-02-07T03:46:03.305Z,999.45
2023-02-07T03:47:03.278Z,999.62
2023-02-07T03:48:03.287Z,999.67
2023-02-07T03:49:03.241Z,999.53
2023-02-07T03:50:03.235Z,999.59
2023-02-07T03:51:03.211Z,999.72
2023-02-07T03:52:03.289Z,999.45
2023-02-07T03:53:03.356Z,999.62
2023-02-07T03:54:03.307Z,999.56
2023-02-07T03:55:03.404Z,999.48
2023-02-07T03:56:03.329Z,999.59
2023-02-07T03:57:03.411Z,999.42
2023-02-07T03:58:03.522Z,999.53
2023-02-07T03:59:03.488Z,999.45
2023-02-07T04:00:03.441Z,999.31
2023-02-07T04:01:03.424Z,999.29
2023-02-07T04:02:03.460Z,999.42
2023-02-07T04:03:03.284Z,999.53
2023-02-07T04:04:03.420Z,999.51
2023-02-07T04:05:03.393Z,999.40
2023-02-07T04:06:03.308Z,999.48
2023-02-07T04:07:03.283Z,999.67
2023-02-07T04:08:03.340Z,999.53
2023-02-07T04:09:03.260Z,999.64
2023-02-07T04:10:03.227Z,999.67
2023-02-07T04:11:03.213Z,999.53
2023-02-07T04:12:03.227Z,999.77
2023-02-07T04:13:03.562Z,999.56
2023-02-07T04:14:03.240Z,999.62
2023-02-07T04:15:03.258Z,999.64
2023-02-07T04:16:03.369Z,999.51
2023-02-07T04:17:03.247Z,999.56
2023-02-07T04:18:03.272Z,999.37
2023-02-07T04:19:03.343Z,999.48
2023-02-07T04:20:03.262Z,999.34
2023-02-07T04:21:03.203Z,999.56
2023-02-07T04:22:03.226Z,999.53
2023-02-07T04:23:03.193Z,999.51
2023-02-07T04:24:03.225Z,999.59
2023-02-07T04:25:03.168Z,999.48
2023-02-07T04:26:03.223Z,999.42
2023-02-07T04:27:03.198Z,999.42
2023-02-07T04:28:03.230Z,999.53
2023-02-07T04:29:03.179Z,999.56
2023-02-07T04:30:03.209Z,999.69
2023-02-07T04:31:03.231Z,999.62
2023-02-07T04:32:03.358Z,999.56
2023-02-07T04:33:03.306Z,999.64
2023-02-07T04:34:03.303Z,999.59
2023-02-07T04:35:03.344Z,999.69
2023-02-07T04:36:03.349Z,999.67
2023-02-07T04:37:03.359Z,999.56
2023-02-07T04:38:03.505Z,999.75
2023-02-07T04:39:03.343Z,999.53
2023-02-07T04:40:03.454Z,999.56
2023-02-07T04:41:03.448Z,999.64
2023-02-07T04:42:03.524Z,999.62
2023-02-07T04:43:03.416Z,999.53
2023-02-07T04:44:03.532Z,999.64
2023-02-07T04:45:03.580Z,999.53
2023-02-07T04:46:03.570Z,999.64
2023-02-07T04:47:03.435Z,999.59
2023-02-07T04:48:03.501Z,999.56
2023-02-07T04:49:03.468Z,999.62
2023-02-07T04:50:03.364Z,999.59
2023-02-07T04:51:03.451Z,999.75
2023-02-07T04:52:03.475Z,999.67
2023-02-07T04:53:03.439Z,999.59
2023-02-07T04:54:03.370Z,999.56
2023-02-07T04:55:03.509Z,999.67
2023-02-07T04:56:03.383Z,999.64
2023-02-07T04:57:03.449Z,999.59
2023-02-07T04:58:03.390Z,999.67
2023-02-07T04:59:03.392Z,999.42
2023-02-07T05:00:03.309Z,999.51
2023-02-07T05:01:03.531Z,999.62
2023-02-07T05:02:03.447Z,999.51
2023-02-07T05:03:03.399Z,999.48
2023-02-07T05:04:03.254Z,999.45
2023-02-07T05:05:03.256Z,999.56
2023-02-07T05:06:03.284Z,999.56
2023-02-07T05:07:03.346Z,999.64
2023-02-07T05:08:03.343Z,999.59
2023-02-07T05:09:03.311Z,999.59
2023-02-07T05:10:03.314Z,999.69
2023-02-07T05:11:03.380Z,999.69
2023-02-07T05:12:03.364Z,999.72
2023-02-07T05:13:03.363Z,999.72
2023-02-07T05:14:03.440Z,999.75
2023-02-07T05:15:03.374Z,999.67
2023-02-07T05:16:03.344Z,999.80
2023-02-07T05:17:03.429Z,999.77
2023-02-07T05:18:03.432Z,999.86
2023-02-07T05:19:03.536Z,999.59
2023-02-07T05:20:03.486Z,999.88
2023-02-07T05:21:03.584Z,999.86
2023-02-07T05:22:03.484Z,999.75
2023-02-07T05:23:03.385Z,999.80
2023-02-07T05:24:03.422Z,1000.05
2023-02-07T05:25:03.864Z,999.97
2023-02-07T05:26:03.720Z,999.99
2023-02-07T05:27:03.812Z,999.94
2023-02-07T05:28:03.869Z,1000.10
2023-02-07T05:29:04.378Z,999.96
2023-02-07T05:30:03.429Z,1000.13
2023-02-07T05:31:03.546Z,1000.24
2023-02-07T05:32:06.900Z,1000.18
2023-02-07T05:33:03.456Z,1000.07
2023-02-07T05:34:03.408Z,1000.10
2023-02-07T05:35:03.412Z,1000.18
2023-02-07T05:36:03.316Z,1000.38
2023-02-07T05:37:03.356Z,1000.21
2023-02-07T05:38:03.414Z,1000.29
2023-02-07T05:39:04.863Z,1000.43
2023-02-07T05:40:03.392Z,1000.38
2023-02-07T05:41:03.350Z,1000.49
2023-02-07T05:42:03.328Z,1000.46
2023-02-07T05:43:03.336Z,1000.32
2023-02-07T05:44:03.313Z,1000.38
2023-02-07T05:45:03.360Z,1000.38
2023-02-07T05:46:03.421Z,1000.51
2023-02-07T05:47:03.362Z,1000.32
2023-02-07T05:48:03.291Z,1000.43
2023-02-07T05:49:03.473Z,1000.43
2023-02-07T05:50:03.433Z,1000.24
2023-02-07T05:51:03.418Z,1000.49
2023-02-07T05:52:03.413Z,1000.29
2023-02-07T05:53:03.444Z,1000.24
2023-02-07T05:54:03.283Z,1000.38
2023-02-07T05:55:03.308Z,1000.02
2023-02-07T05:56:03.404Z,1000.05
2023-02-07T05:57:03.329Z,1000.07
2023-02-07T05:58:03.332Z,1000.13
2023-02-07T05:59:03.225Z,1000.16
2023-02-07T06:00:03.258Z,1000.02
2023-02-07T06:01:03.164Z,1000.18
2023-02-07T06:02:03.122Z,1000.10
2023-02-07T06:03:02.976Z,1000.05
2023-02-07T06:04:02.998Z,1000.13
2023-02-07T06:05:03.052Z,1000.07
2023-02-07T06:06:03.174Z,1000.02
2023-02-07T06:07:03.125Z,1000.05
2023-02-07T06:08:03.079Z,1000.02
2023-02-07T06:09:03.170Z,999.96
2023-02-07T06:10:03.152Z,1000.10
2023-02-07T06:11:03.027Z,1000.02
2023-02-07T06:12:05.550Z,999.83
2023-02-07T06:13:03.019Z,999.96
2023-02-07T06:14:03.070Z,999.99
2023-02-07T06:15:02.994Z,1000.18
2023-02-07T06:16:03.332Z,999.96
2023-02-07T06:17:03.074Z,1000.13
2023-02-07T06:18:03.028Z,999.99
2023-02-07T06:19:02.984Z,999.96
2023-02-07T06:20:03.003Z,999.94
2023-02-07T06:21:03.016Z,999.99
2023-02-07T06:22:03.326Z,999.96
2023-02-07T06:23:03.306Z,999.94
2023-02-07T06:24:03.186Z,999.96
2023-02-07T06:25:03.248Z,1000.02
2023-02-07T06:26:03.447Z,1000.02
2023-02-07T06:27:03.463Z,1000.07
2023-02-07T06:28:03.503Z,1000.13
2023-02-07T06:29:03.421Z,1000.10
2023-02-07T06:30:03.284Z,1000.21
2023-02-07T06:31:03.537Z,1000.24
2023-02-07T06:32:03.309Z,1000.32
2023-02-07T06:33:03.323Z,1000.27
2023-02-07T06:34:03.420Z,1000.16
2023-02-07T06:35:03.473Z,1000.24
2023-02-07T06:36:03.403Z,1000.40
2023-02-07T06:37:03.560Z,1000.49
2023-02-07T06:38:03.573Z,1000.46
2023-02-07T06:39:03.666Z,1000.38
2023-02-07T06:40:03.766Z,1000.27
2023-02-07T06:41:03.741Z,1000.46
2023-02-07T06:42:03.870Z,1000.38
2023-02-07T06:43:03.922Z,1000.40
2023-02-07T06:44:03.829Z,1000.46
2023-02-07T06:45:03.832Z,1000.51
2023-02-07T06:46:02.974Z,1000.49
2023-02-07T06:47:03.965Z,1000.43
2023-02-07T06:48:02.969Z,1000.46
2023-02-07T06:49:02.932Z,1000.46
2023-02-07T06:50:03.018Z,1000.46
2023-02-07T06:51:03.041Z,1000.35
2023-02-07T06:52:03.077Z,1000.49
2023-02-07T06:53:02.933Z,1000.40
2023-02-07T06:54:02.933Z,1000.40
2023-02-07T06:55:03.048Z,1000.32
2023-02-07T06:56:02.960Z,1000.43
2023-02-07T06:57:02.999Z,1000.38
2023-02-07T06:58:03.029Z,1000.51
2023-02-07T06:59:02.905Z,1000.40
2023-02-07T07:00:03.935Z,1000.35
2023-02-07T07:01:03.037Z,1000.49
2023-02-07T07:02:03.202Z,1000.49
2023-02-07T07:03:03.161Z,1000.38
2023-02-07T07:04:03.133Z,1000.43
2023-02-07T07:05:03.076Z,1000.49
2023-02-07T07:06:03.046Z,1000.43
2023-02-07T07:07:03.032Z,1000.38
2023-02-07T07:08:03.129Z,1000.46
2023-02-07T07:09:03.113Z,1000.40
2023-02-07T07:10:03.111Z,1000.49
2023-02-07T07:11:03.021Z,1000.27
2023-02-07T07:12:03.037Z,1000.40
2023-02-07T07:13:03.206Z,1000.29
2023-02-07T07:14:03.270Z,1000.27
2023-02-07T07:15:03.145Z,1000.32
2023-02-07T07:16:03.097Z,1000.46
2023-02-07T07:17:03.120Z,1000.32
2023-02-07T07:18:03.237Z,1000.43
2023-02-07T07:19:03.130Z,1000.27
2023-02-07T07:20:03.282Z,1000.38
2023-02-07T07:21:03.297Z,1000.32
2023-02-07T07:22:03.222Z,1000.29
2023-02-07T07:23:03.339Z,1000.27
2023-02-07T07:24:03.383Z,1000.24
2023-02-07T07:25:03.346Z,1000.24
2023-02-07T07:26:03.369Z,1000.27
2023-02-07T07:27:03.365Z,1000.27
2023-02-07T07:28:03.504Z,1000.24
2023-02-07T07:29:03.323Z,1000.38
2023-02-07T07:30:03.504Z,1000.43
2023-02-07T07:31:03.744Z,1000.32
2023-02-07T07:32:03.650Z,1000.35
2023-02-07T07:33:03.659Z,1000.40
2023-02-07T07:34:03.837Z,1000.24
2023-02-07T07:35:03.981Z,1000.35
2023-02-07T07:36:03.935Z,1000.46
2023-02-07T07:37:03.894Z,1000.24
2023-02-07T07:38:02.928Z,1000.35
2023-02-07T07:39:03.039Z,1000.49
2023-02-07T07:40:03.015Z,1000.32
2023-02-07T07:41:03.349Z,1000.40
2023-02-07T07:42:03.377Z,1000.32
2023-02-07T07:43:03.252Z,1000.40
2023-02-07T07:44:03.266Z,1000.43
2023-02-07T07:45:03.300Z,1000.43
2023-02-07T07:46:03.308Z,1000.54
2023-02-07T07:47:03.296Z,1000.54
2023-02-07T07:48:03.395Z,1000.54
2023-02-07T07:49:03.383Z,1000.40
2023-02-07T07:50:03.301Z,1000.54
2023-02-07T07:51:03.255Z,1000.40
2023-02-07T07:52:03.188Z,1000.73
2023-02-07T07:53:03.249Z,1000.57
2023-02-07T07:54:03.308Z,1000.57
2023-02-07T07:55:03.321Z,1000.49
2023-02-07T07:56:03.164Z,1000.49
2023-02-07T07:57:03.318Z,1000.54
2023-02-07T07:58:03.182Z,1000.63
2023-02-07T07:59:15.962Z,1000.60
2023-02-07T08:00:03.175Z,1000.54
2023-02-07T08:01:03.381Z,1000.57
2023-02-07T08:02:03.355Z,1000.35
2023-02-07T08:03:03.517Z,1000.65
2023-02-07T08:04:03.470Z,1000.63
2023-02-07T08:05:03.478Z,1000.52
2023-02-07T08:06:03.463Z,1000.54
2023-02-07T08:07:03.463Z,1000.46
2023-02-07T08:08:03.394Z,1000.38
2023-02-07T08:09:03.375Z,1000.46
2023-02-07T08:10:03.468Z,1000.35
2023-02-07T08:11:03.540Z,1000.38
2023-02-07T08:12:03.406Z,1000.49
2023-02-07T08:13:03.487Z,1000.41
2023-02-07T08:14:03.434Z,1000.35
2023-02-07T08:15:03.515Z,1000.49
2023-02-07T08:16:03.634Z,1000.49
2023-02-07T08:17:03.776Z,1000.32
2023-02-07T08:18:03.748Z,1000.54
2023-02-07T08:19:03.680Z,1000.49
2023-02-07T08:20:03.731Z,1000.52
2023-02-07T08:21:03.634Z,1000.52
2023-02-07T08:22:03.672Z,1000.52
2023-02-07T08:23:03.698Z,1000.60
2023-02-07T08:24:03.674Z,1000.49
2023-02-07T08:25:03.851Z,1000.65
2023-02-07T08:26:03.900Z,1000.46
2023-02-07T08:27:03.882Z,1000.46
2023-02-07T08:28:05.141Z,1000.54
2023-02-07T08:29:02.957Z,1000.49
2023-02-07T08:30:03.003Z,1000.54
2023-02-07T08:31:03.253Z,1000.63
2023-02-07T08:32:03.084Z,1000.57
2023-02-07T08:33:03.113Z,1000.41
2023-02-07T08:34:03.087Z,1000.65
2023-02-07T08:35:03.067Z,1000.57
2023-02-07T08:36:03.118Z,1000.68
2023-02-07T08:37:03.029Z,1000.68
2023-02-07T08:38:03.146Z,1000.65
2023-02-07T08:39:06.381Z,1000.60
2023-02-07T08:40:03.290Z,1000.57
2023-02-07T08:41:03.213Z,1000.54
2023-02-07T08:42:03.212Z,1000.49
2023-02-07T08:43:03.215Z,1000.46
2023-02-07T08:44:03.171Z,1000.60
2023-02-07T08:45:03.214Z,1000.54
2023-02-07T08:46:03.367Z,1000.60
2023-02-07T08:47:03.074Z,1000.46
2023-02-07T08:48:03.022Z,1000.60
2023-02-07T08:49:03.063Z,1000.49
2023-02-07T08:50:03.015Z,1000.38
2023-02-07T08:51:02.974Z,1000.43
2023-02-07T08:52:02.928Z,1000.55
2023-02-07T08:53:02.930Z,1000.32
2023-02-07T08:54:02.938Z,1000.35
2023-02-07T08:55:03.053Z,1000.27
2023-02-07T08:56:03.067Z,1000.35
2023-02-07T08:57:02.982Z,1000.21
2023-02-07T08:58:03.969Z,1000.46
2023-02-07T08:59:02.993Z,1000.49
2023-02-07T09:00:02.995Z,1000.35
2023-02-07T09:01:03.067Z,1000.57
2023-02-07T09:02:03.271Z,1000.55
2023-02-07T09:03:03.124Z,1000.57
2023-02-07T09:04:03.034Z,1000.52
2023-02-07T09:05:03.035Z,1000.55
2023-02-07T09:06:03.052Z,1000.44
2023-02-07T09:07:03.133Z,1000.46
2023-02-07T09:08:03.114Z,1000.52
2023-02-07T09:09:03.122Z,1000.57
2023-02-07T09:10:03.234Z,1000.57
2023-02-07T09:11:09.655Z,1000.60
2023-02-07T09:12:03.223Z,1000.41
2023-02-07T09:13:03.132Z,1000.41
2023-02-07T09:14:03.220Z,1000.41
2023-02-07T09:15:03.133Z,1000.57
2023-02-07T09:16:03.229Z,1000.60
2023-02-07T09:17:03.330Z,1000.46
2023-02-07T09:18:03.240Z,1000.46
2023-02-07T09:19:03.223Z,1000.38
2023-02-07T09:20:03.269Z,1000.52
2023-02-07T09:21:03.359Z,1000.44
2023-02-07T09:22:03.270Z,1000.57
2023-02-07T09:23:03.253Z,1000.55
2023-02-07T09:24:03.157Z,1000.66
2023-02-07T09:25:03.289Z,1000.49
2023-02-07T09:26:03.253Z,1000.52
2023-02-07T09:27:03.330Z,1000.69
2023-02-07T09:28:03.336Z,1000.63
2023-02-07T09:29:03.287Z,1000.76
2023-02-07T09:30:03.272Z,1000.66
2023-02-07T09:31:05.861Z,1000.52
2023-02-07T09:32:03.306Z,1000.52
2023-02-07T09:33:03.339Z,1000.63
2023-02-07T09:34:03.321Z,1000.57
2023-02-07T09:35:03.488Z,1000.52
2023-02-07T09:36:03.313Z,1000.55
2023-02-07T09:37:03.310Z,1000.60
2023-02-07T09:38:03.504Z,1000.73
2023-02-07T09:39:03.385Z,1000.49
2023-02-07T09:40:03.435Z,1000.73
2023-02-07T09:41:03.455Z,1000.73
2023-02-07T09:42:05.656Z,1000.52
2023-02-07T09:43:04.016Z,1000.57
2023-02-07T09:44:03.918Z,1000.82
2023-02-07T09:45:03.972Z,1000.76
2023-02-07T09:46:03.762Z,1000.69
2023-02-07T09:47:03.775Z,1000.66
2023-02-07T09:48:03.577Z,1000.79
2023-02-07T09:49:03.479Z,1000.82
2023-02-07T09:50:03.552Z,1000.90
2023-02-07T09:51:03.575Z,1000.69
2023-02-07T09:52:03.602Z,1000.84
2023-02-07T09:53:03.615Z,1000.84
2023-02-07T09:54:03.563Z,1000.73
2023-02-07T09:55:03.608Z,1000.95
2023-02-07T09:56:03.648Z,1000.66
2023-02-07T09:57:03.569Z,1000.96
2023-02-07T09:58:03.596Z,1000.93
2023-02-07T09:59:03.644Z,1000.87
2023-02-07T10:00:03.623Z,1000.79
2023-02-07T10:01:03.659Z,1000.82
2023-02-07T10:02:03.638Z,1000.73
2023-02-07T10:03:03.806Z,1000.79
2023-02-07T10:04:03.686Z,1000.63
2023-02-07T10:05:03.823Z,1000.66
2023-02-07T10:06:19.297Z,1000.63
2023-02-07T10:07:03.811Z,1000.73
2023-02-07T10:08:03.727Z,1000.76
2023-02-07T10:09:03.722Z,1000.82
2023-02-07T10:10:03.842Z,1000.82
2023-02-07T10:11:03.832Z,1000.90
2023-02-07T10:12:03.763Z,1000.79
2023-02-07T10:13:03.834Z,1000.85
2023-02-07T10:14:03.853Z,1000.76
2023-02-07T10:15:03.814Z,1000.85
2023-02-07T10:16:03.939Z,1000.90
2023-02-07T10:17:03.854Z,1001.01
2023-02-07T10:18:03.897Z,1000.96
2023-02-07T10:19:03.733Z,1000.90
2023-02-07T10:20:03.885Z,1000.90
2023-02-07T10:21:03.934Z,1000.87
2023-02-07T10:22:04.143Z,1000.87
2023-02-07T10:23:03.928Z,1000.76
2023-02-07T10:24:03.044Z,1000.66
2023-02-07T10:25:02.943Z,1000.90
2023-02-07T10:26:03.012Z,1000.87
2023-02-07T10:27:03.927Z,1000.79
2023-02-07T10:28:03.943Z,1000.82
2023-02-07T10:29:03.885Z,1000.82
2023-02-07T10:30:03.834Z,1000.66
2023-02-07T10:31:03.046Z,1000.74
2023-02-07T10:32:03.152Z,1000.74
2023-02-07T10:33:03.160Z,1000.66
2023-02-07T10:34:03.244Z,1000.66
2023-02-07T10:35:03.295Z,1000.85
2023-02-07T10:36:03.307Z,1000.63
2023-02-07T10:37:03.318Z,1000.76
2023-02-07T10:38:03.394Z,1000.88
2023-02-07T10:39:09.993Z,1000.69
2023-02-07T10:40:03.398Z,1000.61
2023-02-07T10:41:03.435Z,1000.61
2023-02-07T10:42:03.526Z,1000.69
2023-02-07T10:43:03.571Z,1000.74
2023-02-07T10:44:03.571Z,1000.61
2023-02-07T10:45:03.617Z,1000.76
2023-02-07T10:46:07.000Z,1000.74
2023-02-07T10:47:03.733Z,1000.82
2023-02-07T10:48:03.742Z,1000.77
2023-02-07T10:49:03.824Z,1000.69
2023-02-07T10:50:03.715Z,1000.82
2023-02-07T10:51:03.749Z,1000.77
2023-02-07T10:52:03.808Z,1000.77
2023-02-07T10:53:03.736Z,1000.88
2023-02-07T10:54:03.638Z,1000.66
2023-02-07T10:55:03.757Z,1000.82
2023-02-07T10:56:03.698Z,1000.77
2023-02-07T10:57:03.730Z,1000.74
2023-02-07T10:58:23.464Z,1000.85
2023-02-07T10:59:03.915Z,1000.82
2023-02-07T11:00:03.794Z,1000.88
2023-02-07T11:01:03.846Z,1000.77
2023-02-07T11:02:03.811Z,1000.93
2023-02-07T11:03:03.940Z,1000.82
2023-02-07T11:04:03.677Z,1000.79
2023-02-07T11:05:03.748Z,1000.66
2023-02-07T11:06:03.921Z,1000.77
2023-02-07T11:07:03.758Z,1000.85
2023-02-07T11:08:03.868Z,1000.77
2023-02-07T11:09:03.796Z,1000.82
2023-02-07T11:10:03.919Z,1000.88
2023-02-07T11:11:03.814Z,1000.96
2023-02-07T11:12:03.893Z,1000.88
2023-02-07T11:13:03.801Z,1000.99
2023-02-07T11:14:03.822Z,1000.88
2023-02-07T11:15:03.002Z,1000.82
2023-02-07T11:16:02.984Z,1000.82
2023-02-07T11:17:03.990Z,1000.74
2023-02-07T11:18:03.922Z,1000.91
2023-02-07T11:19:03.079Z,1000.88
2023-02-07T11:20:03.057Z,1000.77
2023-02-07T11:21:03.952Z,1000.79
2023-02-07T11:22:03.896Z,1000.82
2023-02-07T11:23:03.922Z,1000.74
2023-02-07T11:24:03.857Z,1000.79
2023-02-07T11:25:03.970Z,1000.66
2023-02-07T11:26:02.921Z,1000.58
2023-02-07T11:27:03.104Z,1000.77
2023-02-07T11:28:03.087Z,1000.61
2023-02-07T11:29:03.033Z,1000.79
2023-02-07T11:30:02.969Z,1000.64
2023-02-07T11:31:03.269Z,1000.61
2023-02-07T11:32:02.971Z,1000.69
2023-02-07T11:33:03.913Z,1000.64
2023-02-07T11:34:03.864Z,1000.77
2023-02-07T11:35:03.860Z,1000.69
2023-02-07T11:36:03.844Z,1000.77
2023-02-07T11:37:03.837Z,1000.85
2023-02-07T11:38:04.986Z,1000.91
2023-02-07T11:39:02.972Z,1000.77
2023-02-07T11:40:03.073Z,1000.88
2023-02-07T11:41:03.213Z,1000.88
2023-02-07T11:42:03.274Z,1000.80
2023-02-07T11:43:03.307Z,1001.05
2023-02-07T11:44:03.316Z,1001.13
2023-02-07T11:45:03.300Z,1001.07
2023-02-07T11:46:03.310Z,1001.21
2023-02-07T11:47:03.324Z,1001.02
2023-02-07T11:48:03.394Z,1001.16
2023-02-07T11:49:03.434Z,1001.05
2023-02-07T11:50:03.435Z,1000.93
2023-02-07T11:51:03.365Z,1001.16
2023-02-07T11:52:03.422Z,1000.99
2023-02-07T11:53:03.408Z,1001.19
2023-02-07T11:54:03.330Z,1001.02
2023-02-07T11:55:03.428Z,1000.96
2023-02-07T11:56:03.283Z,1000.99
2023-02-07T11:57:03.376Z,1001.02
2023-02-07T11:58:03.405Z,1001.02
2023-02-07T11:59:03.354Z,1000.94
2023-02-07T12:00:03.494Z,1001.05
2023-02-07T12:01:03.484Z,1000.99
2023-02-07T12:02:03.735Z,1001.05
2023-02-07T12:03:03.636Z,1000.80
2023-02-07T12:04:03.743Z,1000.99
2023-02-07T12:05:03.828Z,1001.13
2023-02-07T12:06:03.747Z,1001.08
2023-02-07T12:07:03.737Z,1001.05
2023-02-07T12:08:03.889Z,1001.13
2023-02-07T12:09:03.833Z,1001.05
2023-02-07T12:10:02.974Z,1000.99
2023-02-07T12:11:03.916Z,1001.30
2023-02-07T12:12:03.863Z,1001.02
2023-02-07T12:13:03.843Z,1001.08
2023-02-07T12:14:03.522Z,1001.13
2023-02-07T12:15:03.075Z,1001.16
2023-02-07T12:16:03.109Z,1001.19